sensor_id;sensor_type;location;lat;lon;timestamp;pressure;altitude;pressure_sealevel;temperature;humidity
70053;BME280;57398;52.032;4.376;2023-07-29T00:01:15;99598.84;;;17.17;nan
70053;BME280;57398;52.032;4.376;2023-07-29T00:06:52;99634.03;;;17.03;nan
70053;BME280;57398;52.032;4.376;2023-07-29T00:09:40;99643.34;;;16.95;nan
70053;BME280;57398;52.032;4.376;2023-07-29T00:12:29;99656.84;;;16.88;nan
70053;BME280;57398;52.032;4.376;2023-07-29T00:15:17;99675.75;;;16.85;nan
70053;BME280;57398;52.032;4.376;2023-07-29T00:18:07;99690.22;;;16.83;nan
70053;BME280;57398;52.032;4.376;2023-07-29T00:20:55;99693.78;;;16.73;nan
70053;BME280;57398;52.032;4.376;2023-07-29T00:23:44;99720.84;;;16.68;nan
70053;BME280;57398;52.032;4.376;2023-07-29T00:29:22;99699.75;;;16.60;nan
70053;BME280;57398;52.032;4.376;2023-07-29T00:32:10;99693.16;;;16.62;nan
70053;BME280;57398;52.032;4.376;2023-07-29T00:35:00;99723.16;;;16.56;nan
70053;BME280;57398;52.032;4.376;2023-07-29T00:37:49;99697.28;;;16.49;nan
70053;BME280;57398;52.032;4.376;2023-07-29T00:40:37;99680.56;;;16.45;nan
70053;BME280;57398;52.032;4.376;2023-07-29T00:43:25;99685.31;;;16.43;nan
70053;BME280;57398;52.032;4.376;2023-07-29T00:46:14;99669.38;;;16.40;nan
70053;BME280;57398;52.032;4.376;2023-07-29T00:49:03;99660.25;;;16.37;nan
70053;BME280;57398;52.032;4.376;2023-07-29T00:51:53;99635.09;;;16.36;nan
70053;BME280;57398;52.032;4.376;2023-07-29T00:54:42;99618.63;;;16.36;nan
70053;BME280;57398;52.032;4.376;2023-07-29T00:57:31;99609.94;;;16.35;nan
70053;BME280;57398;52.032;4.376;2023-07-29T01:00:21;99595.31;;;16.34;nan
70053;BME280;57398;52.032;4.376;2023-07-29T01:03:09;99581.13;;;16.35;nan
70053;BME280;57398;52.032;4.376;2023-07-29T01:06:09;99566.75;;;16.32;nan
70053;BME280;57398;52.032;4.376;2023-07-29T01:09:05;99541.13;;;16.29;nan
70053;BME280;57398;52.032;4.376;2023-07-29T01:12:01;99520.66;;;16.31;nan
70053;BME280;57398;52.032;4.376;2023-07-29T01:17:47;99489.78;;;16.28;nan
70053;BME280;57398;52.032;4.376;2023-07-29T01:20:38;99474.66;;;16.25;nan
70053;BME280;57398;52.032;4.376;2023-07-29T01:23:30;99458.16;;;16.25;nan
70053;BME280;57398;52.032;4.376;2023-07-29T01:26:19;99467.06;;;16.24;nan
70053;BME280;57398;52.032;4.376;2023-07-29T01:29:07;99435.34;;;16.25;nan
70053;BME280;57398;52.032;4.376;2023-07-29T01:31:57;99419.91;;;16.24;nan
70053;BME280;57398;52.032;4.376;2023-07-29T01:34:52;99411.59;;;16.22;nan
70053;BME280;57398;52.032;4.376;2023-07-29T01:37:44;99406.34;;;16.22;nan
70053;BME280;57398;52.032;4.376;2023-07-29T01:40:37;99381.56;;;16.14;nan
70053;BME280;57398;52.032;4.376;2023-07-29T01:43:26;99362.47;;;16.13;nan
70053;BME280;57398;52.032;4.376;2023-07-29T01:46:14;99367.72;;;16.13;nan
70053;BME280;57398;52.032;4.376;2023-07-29T01:49:02;99344.72;;;16.10;nan
70053;BME280;57398;52.032;4.376;2023-07-29T01:51:51;99339.00;;;16.08;nan
70053;BME280;57398;52.032;4.376;2023-07-29T01:54:40;99320.16;;;16.06;nan
70053;BME280;57398;52.032;4.376;2023-07-29T01:57:29;99311.81;;;16.04;nan
70053;BME280;57398;52.032;4.376;2023-07-29T02:00:18;99303.47;;;16.02;nan
70053;BME280;57398;52.032;4.376;2023-07-29T02:03:06;99293.78;;;16.03;nan
70053;BME280;57398;52.032;4.376;2023-07-29T02:05:55;99265.72;;;16.03;nan
70053;BME280;57398;52.032;4.376;2023-07-29T02:08:43;99264.47;;;16.01;nan
70053;BME280;57398;52.032;4.376;2023-07-29T02:11:32;99256.63;;;16.01;nan
70053;BME280;57398;52.032;4.376;2023-07-29T02:14:21;99246.94;;;16.01;nan
70053;BME280;57398;52.032;4.376;2023-07-29T02:17:09;99248.09;;;15.95;nan
70053;BME280;57398;52.032;4.376;2023-07-29T02:19:58;99237.63;;;15.95;nan
70053;BME280;57398;52.032;4.376;2023-07-29T02:22:46;99253.34;;;15.95;nan
70053;BME280;57398;52.032;4.376;2023-07-29T02:25:35;99237.25;;;15.88;nan
70053;BME280;57398;52.032;4.376;2023-07-29T02:28:24;99250.13;;;15.98;nan
70053;BME280;57398;52.032;4.376;2023-07-29T02:31:17;99237.63;;;15.95;nan
70053;BME280;57398;52.032;4.376;2023-07-29T02:34:06;99230.53;;;15.96;nan
70053;BME280;57398;52.032;4.376;2023-07-29T02:36:54;99222.41;;;15.97;nan
70053;BME280;57398;52.032;4.376;2023-07-29T02:39:43;99230.25;;;15.97;nan
70053;BME280;57398;52.032;4.376;2023-07-29T02:42:31;99218.81;;;15.93;nan
70053;BME280;57398;52.032;4.376;2023-07-29T02:45:19;99232.88;;;15.97;nan
70053;BME280;57398;52.032;4.376;2023-07-29T02:48:09;99214.84;;;15.96;nan
70053;BME280;57398;52.032;4.376;2023-07-29T02:50:58;99244.13;;;15.98;nan
70053;BME280;57398;52.032;4.376;2023-07-29T02:53:46;99225.59;;;15.94;nan
70053;BME280;57398;52.032;4.376;2023-07-29T02:56:35;99215.81;;;16.00;nan
70053;BME280;57398;52.032;4.376;2023-07-29T02:59:23;99202.41;;;16.01;nan
70053;BME280;57398;52.032;4.376;2023-07-29T03:02:12;99213.19;;;16.00;nan
70053;BME280;57398;52.032;4.376;2023-07-29T03:05:05;99214.44;;;16.02;nan
70053;BME280;57398;52.032;4.376;2023-07-29T03:07:54;99212.31;;;16.04;nan
70053;BME280;57398;52.032;4.376;2023-07-29T03:10:42;99207.53;;;16.06;nan
70053;BME280;57398;52.032;4.376;2023-07-29T03:13:31;99219.03;;;16.19;nan
70053;BME280;57398;52.032;4.376;2023-07-29T03:16:19;99228.63;;;16.24;nan
70053;BME280;57398;52.032;4.376;2023-07-29T03:19:07;99222.50;;;16.28;nan
70053;BME280;57398;52.032;4.376;2023-07-29T03:21:57;99234.56;;;16.29;nan
70053;BME280;57398;52.032;4.376;2023-07-29T03:24:45;99241.72;;;16.38;nan
70053;BME280;57398;52.032;4.376;2023-07-29T03:27:34;99258.72;;;16.40;nan
70053;BME280;57398;52.032;4.376;2023-07-29T03:30:23;99266.09;;;16.38;nan
70053;BME280;57398;52.032;4.376;2023-07-29T03:33:11;99267.16;;;16.37;nan
70053;BME280;57398;52.032;4.376;2023-07-29T03:36:00;99290.72;;;16.37;nan
70053;BME280;57398;52.032;4.376;2023-07-29T03:38:49;99295.56;;;16.44;nan
70053;BME280;57398;52.032;4.376;2023-07-29T03:41:38;99303.44;;;16.44;nan
70053;BME280;57398;52.032;4.376;2023-07-29T03:44:26;99306.81;;;16.44;nan
70053;BME280;57398;52.032;4.376;2023-07-29T03:47:14;99306.81;;;16.44;nan
70053;BME280;57398;52.032;4.376;2023-07-29T03:50:03;99296.06;;;16.46;nan
70053;BME280;57398;52.032;4.376;2023-07-29T03:52:51;99300.81;;;16.44;nan
70053;BME280;57398;52.032;4.376;2023-07-29T03:55:41;99308.50;;;16.40;nan
70053;BME280;57398;52.032;4.376;2023-07-29T03:58:29;99318.09;;;16.45;nan
70053;BME280;57398;52.032;4.376;2023-07-29T04:04:06;99307.31;;;16.46;nan
70053;BME280;57398;52.032;4.376;2023-07-29T04:06:54;99306.81;;;16.44;nan
70053;BME280;57398;52.032;4.376;2023-07-29T04:12:32;99298.59;;;16.37;nan
70053;BME280;57398;52.032;4.376;2023-07-29T04:15:21;99292.28;;;16.38;nan
70053;BME280;57398;52.032;4.376;2023-07-29T04:18:09;99306.94;;;16.39;nan
70053;BME280;57398;52.032;4.376;2023-07-29T04:20:57;99300.66;;;16.40;nan
70053;BME280;57398;52.032;4.376;2023-07-29T04:23:45;99297.41;;;16.43;nan
70053;BME280;57398;52.032;4.376;2023-07-29T04:26:34;99319.34;;;16.47;nan
70053;BME280;57398;52.032;4.376;2023-07-29T04:29:25;99308.88;;;16.47;nan
70053;BME280;57398;52.032;4.376;2023-07-29T04:32:13;99314.88;;;16.48;nan
70053;BME280;57398;52.032;4.376;2023-07-29T04:35:01;99312.44;;;16.51;nan
70053;BME280;57398;52.032;4.376;2023-07-29T04:37:50;99325.53;;;16.51;nan
70053;BME280;57398;52.032;4.376;2023-07-29T04:40:38;99328.47;;;16.50;nan
70053;BME280;57398;52.032;4.376;2023-07-29T04:46:16;99337.59;;;16.52;nan
70053;BME280;57398;52.032;4.376;2023-07-29T04:49:04;99337.00;;;16.55;nan
70053;BME280;57398;52.032;4.376;2023-07-29T04:51:53;99333.31;;;16.57;nan
70053;BME280;57398;52.032;4.376;2023-07-29T04:54:41;99339.34;;;16.57;nan
70053;BME280;57398;52.032;4.376;2023-07-29T04:57:29;99320.50;;;16.55;nan
70053;BME280;57398;52.032;4.376;2023-07-29T05:03:07;99305.91;;;16.63;nan
70053;BME280;57398;52.032;4.376;2023-07-29T05:05:55;99303.69;;;16.70;nan
70053;BME280;57398;52.032;4.376;2023-07-29T05:08:44;99309.09;;;16.73;nan
70053;BME280;57398;52.032;4.376;2023-07-29T05:11:32;99309.56;;;16.75;nan
70053;BME280;57398;52.032;4.376;2023-07-29T05:14:20;99307.44;;;16.78;nan
70053;BME280;57398;52.032;4.376;2023-07-29T05:17:08;99297.63;;;16.83;nan
70053;BME280;57398;52.032;4.376;2023-07-29T05:19:58;99289.28;;;16.81;nan
70053;BME280;57398;52.032;4.376;2023-07-29T05:22:46;99297.53;;;16.88;nan
70053;BME280;57398;52.032;4.376;2023-07-29T05:25:34;99318.66;;;16.92;nan
70053;BME280;57398;52.032;4.376;2023-07-29T05:28:23;99299.41;;;16.96;nan
70053;BME280;57398;52.032;4.376;2023-07-29T05:31:11;99312.88;;;17.04;nan
70053;BME280;57398;52.032;4.376;2023-07-29T05:33:59;99297.63;;;17.06;nan
70053;BME280;57398;52.032;4.376;2023-07-29T05:36:49;99311.09;;;17.13;nan
70053;BME280;57398;52.032;4.376;2023-07-29T05:39:37;99337.81;;;17.15;nan
70053;BME280;57398;52.032;4.376;2023-07-29T05:42:25;99309.63;;;17.21;nan
70053;BME280;57398;52.032;4.376;2023-07-29T05:45:14;99320.41;;;17.19;nan
70053;BME280;57398;52.032;4.376;2023-07-29T05:53:40;99335.13;;;17.29;nan
70053;BME280;57398;52.032;4.376;2023-07-29T05:56:29;99305.19;;;17.30;nan
70053;BME280;57398;52.032;4.376;2023-07-29T05:59:18;99322.19;;;17.32;nan
70053;BME280;57398;52.032;4.376;2023-07-29T06:02:06;99308.75;;;17.34;nan
70053;BME280;57398;52.032;4.376;2023-07-29T06:04:55;99309.56;;;17.34;nan
70053;BME280;57398;52.032;4.376;2023-07-29T06:07:43;99302.78;;;17.42;nan
70053;BME280;57398;52.032;4.376;2023-07-29T06:10:33;99311.97;;;17.53;nan
70053;BME280;57398;52.032;4.376;2023-07-29T06:13:21;99319.13;;;17.62;nan
70053;BME280;57398;52.032;4.376;2023-07-29T06:16:09;99346.91;;;17.63;nan
70053;BME280;57398;52.032;4.376;2023-07-29T06:18:58;99338.94;;;17.45;nan
70053;BME280;57398;52.032;4.376;2023-07-29T06:27:23;99226.97;;;17.09;nan
70053;BME280;57398;52.032;4.376;2023-07-29T06:30:12;99185.47;;;17.11;nan
70053;BME280;57398;52.032;4.376;2023-07-29T06:33:00;99134.72;;;17.16;nan
70053;BME280;57398;52.032;4.376;2023-07-29T06:35:50;99095.25;;;17.30;nan
70053;BME280;57398;52.032;4.376;2023-07-29T06:38:38;99063.63;;;17.44;nan
70053;BME280;57398;52.032;4.376;2023-07-29T06:41:27;99047.13;;;17.43;nan
70053;BME280;57398;52.032;4.376;2023-07-29T06:47:05;99107.19;;;17.62;nan
70053;BME280;57398;52.032;4.376;2023-07-29T06:49:53;99062.88;;;17.61;nan
70053;BME280;57398;52.032;4.376;2023-07-29T06:52:42;99107.50;;;17.61;nan
70053;BME280;57398;52.032;4.376;2023-07-29T06:55:30;99122.66;;;17.72;nan
70053;BME280;57398;52.032;4.376;2023-07-29T07:01:08;99181.44;;;18.20;nan
70053;BME280;57398;52.032;4.376;2023-07-29T07:03:56;99251.94;;;18.35;nan
70053;BME280;57398;52.032;4.376;2023-07-29T07:06:45;99346.09;;;18.25;nan
70053;BME280;57398;52.032;4.376;2023-07-29T07:09:33;99435.63;;;18.28;nan
70053;BME280;57398;52.032;4.376;2023-07-29T07:12:22;99497.28;;;18.22;nan
70053;BME280;57398;52.032;4.376;2023-07-29T07:15:10;99569.56;;;18.33;nan
70053;BME280;57398;52.032;4.376;2023-07-29T07:18:00;99617.34;;;18.58;nan
70053;BME280;57398;52.032;4.376;2023-07-29T07:20:48;99660.22;;;18.81;nan
70053;BME280;57398;52.032;4.376;2023-07-29T07:23:39;99763.19;;;18.74;nan
70053;BME280;57398;52.032;4.376;2023-07-29T07:26:27;99788.59;;;18.56;nan
70053;BME280;57398;52.032;4.376;2023-07-29T07:29:17;99808.16;;;18.50;nan
70053;BME280;57398;52.032;4.376;2023-07-29T07:32:06;99850.72;;;18.52;nan
70053;BME280;57398;52.032;4.376;2023-07-29T07:34:56;99885.66;;;18.67;nan
70053;BME280;57398;52.032;4.376;2023-07-29T07:37:44;99886.97;;;18.69;nan
70053;BME280;57398;52.032;4.376;2023-07-29T07:40:33;99882.88;;;18.77;nan
70053;BME280;57398;52.032;4.376;2023-07-29T07:46:14;99856.69;;;18.94;nan
70053;BME280;57398;52.032;4.376;2023-07-29T07:49:02;99857.13;;;19.10;nan
70053;BME280;57398;52.032;4.376;2023-07-29T07:51:52;99867.59;;;19.24;nan
70053;BME280;57398;52.032;4.376;2023-07-29T07:54:40;99894.31;;;19.31;nan
70053;BME280;57398;52.032;4.376;2023-07-29T07:57:28;99929.06;;;19.42;nan
70053;BME280;57398;52.032;4.376;2023-07-29T08:00:16;99952.88;;;19.37;nan
70053;BME280;57398;52.032;4.376;2023-07-29T08:03:06;99973.63;;;19.16;nan
70053;BME280;57398;52.032;4.376;2023-07-29T08:08:43;99995.94;;;19.55;nan
70053;BME280;57398;52.032;4.376;2023-07-29T08:11:31;100025.88;;;19.59;nan
70053;BME280;57398;52.032;4.376;2023-07-29T08:14:19;100017.13;;;19.50;nan
70053;BME280;57398;52.032;4.376;2023-07-29T08:17:08;100015.75;;;19.52;nan
70053;BME280;57398;52.032;4.376;2023-07-29T08:19:56;100030.34;;;19.58;nan
70053;BME280;57398;52.032;4.376;2023-07-29T08:22:44;100033.44;;;19.97;nan
70053;BME280;57398;52.032;4.376;2023-07-29T08:25:34;100046.88;;;19.86;nan
70053;BME280;57398;52.032;4.376;2023-07-29T08:28:23;100068.53;;;19.61;nan
70053;BME280;57398;52.032;4.376;2023-07-29T08:31:11;100060.28;;;19.76;nan
70053;BME280;57398;52.032;4.376;2023-07-29T08:34:00;100069.50;;;19.87;nan
70053;BME280;57398;52.032;4.376;2023-07-29T08:36:48;100068.41;;;19.66;nan
70053;BME280;57398;52.032;4.376;2023-07-29T08:39:36;100049.28;;;19.60;nan
70053;BME280;57398;52.032;4.376;2023-07-29T08:42:29;100057.97;;;19.75;nan
70053;BME280;57398;52.032;4.376;2023-07-29T08:45:19;100063.53;;;19.73;nan
70053;BME280;57398;52.032;4.376;2023-07-29T08:48:09;100056.69;;;19.72;nan
70053;BME280;57398;52.032;4.376;2023-07-29T08:50:59;100089.53;;;19.88;nan
70053;BME280;57398;52.032;4.376;2023-07-29T08:53:48;100054.66;;;19.92;nan
70053;BME280;57398;52.032;4.376;2023-07-29T08:56:37;100081.91;;;19.51;nan
70053;BME280;57398;52.032;4.376;2023-07-29T08:59:28;99959.81;;;18.82;nan
70053;BME280;57398;52.032;4.376;2023-07-29T09:02:17;99816.09;;;18.36;nan
70053;BME280;57398;52.032;4.376;2023-07-29T09:05:06;99713.47;;;18.05;nan
70053;BME280;57398;52.032;4.376;2023-07-29T09:07:56;99591.50;;;18.06;nan
70053;BME280;57398;52.032;4.376;2023-07-29T09:10:44;99490.66;;;18.25;nan
70053;BME280;57398;52.032;4.376;2023-07-29T09:13:32;99405.22;;;18.45;nan
70053;BME280;57398;52.032;4.376;2023-07-29T09:16:22;99376.97;;;18.68;nan
70053;BME280;57398;52.032;4.376;2023-07-29T09:19:11;99392.47;;;18.95;nan
70053;BME280;57398;52.032;4.376;2023-07-29T09:21:59;99335.50;;;19.17;nan
70053;BME280;57398;52.032;4.376;2023-07-29T09:24:47;99347.28;;;18.93;nan
70053;BME280;57398;52.032;4.376;2023-07-29T09:27:35;99365.09;;;18.88;nan
70053;BME280;57398;52.032;4.376;2023-07-29T09:30:26;99362.31;;;19.01;nan
70053;BME280;57398;52.032;4.376;2023-07-29T09:33:17;99381.94;;;18.87;nan
70053;BME280;57398;52.032;4.376;2023-07-29T09:38:57;99463.06;;;19.02;nan
70053;BME280;57398;52.032;4.376;2023-07-29T09:41:47;99498.88;;;19.29;nan
70053;BME280;57398;52.032;4.376;2023-07-29T09:44:36;99525.47;;;19.19;nan
70053;BME280;57398;52.032;4.376;2023-07-29T09:50:14;99552.16;;;19.35;nan
70053;BME280;57398;52.032;4.376;2023-07-29T09:55:53;99659.50;;;18.98;nan
70053;BME280;57398;52.032;4.376;2023-07-29T09:58:43;99674.03;;;18.95;nan
70053;BME280;57398;52.032;4.376;2023-07-29T10:04:24;99703.25;;;18.62;nan
70053;BME280;57398;52.032;4.376;2023-07-29T10:10:09;99737.41;;;18.40;nan
70053;BME280;57398;52.032;4.376;2023-07-29T10:12:57;99700.53;;;18.54;nan
70053;BME280;57398;52.032;4.376;2023-07-29T10:15:46;99675.13;;;18.72;nan
70053;BME280;57398;52.032;4.376;2023-07-29T10:21:22;99637.03;;;18.92;nan
70053;BME280;57398;52.032;4.376;2023-07-29T10:24:15;99620.09;;;19.15;nan
70053;BME280;57398;52.032;4.376;2023-07-29T10:27:06;99659.03;;;18.73;nan
70053;BME280;57398;52.032;4.376;2023-07-29T10:32:44;99659.00;;;18.42;nan
70053;BME280;57398;52.032;4.376;2023-07-29T10:35:33;99648.00;;;18.40;nan
70053;BME280;57398;52.032;4.376;2023-07-29T10:38:23;99624.03;;;18.41;nan
70053;BME280;57398;52.032;4.376;2023-07-29T10:41:13;99612.25;;;18.61;nan
70053;BME280;57398;52.032;4.376;2023-07-29T10:44:01;99629.22;;;18.55;nan
70053;BME280;57398;52.032;4.376;2023-07-29T10:46:49;99616.78;;;18.92;nan
70053;BME280;57398;52.032;4.376;2023-07-29T10:49:39;99606.09;;;19.55;nan
70053;BME280;57398;52.032;4.376;2023-07-29T10:52:30;99615.91;;;19.89;nan
70053;BME280;57398;52.032;4.376;2023-07-29T10:55:25;99648.59;;;20.32;nan
70053;BME280;57398;52.032;4.376;2023-07-29T10:58:15;99664.88;;;20.68;nan
70053;BME280;57398;52.032;4.376;2023-07-29T11:01:12;99682.59;;;21.06;nan
70053;BME280;57398;52.032;4.376;2023-07-29T11:07:25;99790.72;;;20.33;nan
70053;BME280;57398;52.032;4.376;2023-07-29T11:10:16;99786.06;;;20.39;nan
70053;BME280;57398;52.032;4.376;2023-07-29T11:13:05;99769.44;;;20.21;nan
70053;BME280;57398;52.032;4.376;2023-07-29T11:15:56;99805.19;;;19.87;nan
70053;BME280;57398;52.032;4.376;2023-07-29T11:18:46;99790.06;;;20.10;nan
70053;BME280;57398;52.032;4.376;2023-07-29T11:21:36;99796.88;;;20.02;nan
70053;BME280;57398;52.032;4.376;2023-07-29T11:24:24;99817.94;;;19.94;nan
70053;BME280;57398;52.032;4.376;2023-07-29T11:27:12;99824.78;;;20.03;nan
70053;BME280;57398;52.032;4.376;2023-07-29T11:30:02;99841.47;;;19.90;nan
70053;BME280;57398;52.032;4.376;2023-07-29T11:32:54;99833.47;;;20.13;nan
70053;BME280;57398;52.032;4.376;2023-07-29T11:35:42;99867.06;;;20.47;nan
70053;BME280;57398;52.032;4.376;2023-07-29T11:38:31;99874.09;;;20.60;nan
70053;BME280;57398;52.032;4.376;2023-07-29T11:41:24;99865.25;;;21.08;nan
70053;BME280;57398;52.032;4.376;2023-07-29T11:44:16;99865.50;;;21.50;nan
70053;BME280;57398;52.032;4.376;2023-07-29T11:47:06;99920.56;;;21.31;nan
70053;BME280;57398;52.032;4.376;2023-07-29T11:49:58;99977.53;;;20.88;nan
70053;BME280;57398;52.032;4.376;2023-07-29T11:55:36;99948.44;;;20.62;nan
70053;BME280;57398;52.032;4.376;2023-07-29T11:58:24;99921.63;;;20.86;nan
70053;BME280;57398;52.032;4.376;2023-07-29T12:01:13;99945.38;;;20.86;nan
70053;BME280;57398;52.032;4.376;2023-07-29T12:04:02;99951.78;;;21.03;nan
70053;BME280;57398;52.032;4.376;2023-07-29T12:06:53;99952.69;;;21.77;nan
70053;BME280;57398;52.032;4.376;2023-07-29T12:09:44;99978.06;;;22.25;nan
70053;BME280;57398;52.032;4.376;2023-07-29T12:12:32;100031.13;;;22.28;nan
70053;BME280;57398;52.032;4.376;2023-07-29T12:15:25;100071.91;;;22.10;nan
70053;BME280;57398;52.032;4.376;2023-07-29T12:18:14;100072.19;;;22.17;nan
70053;BME280;57398;52.032;4.376;2023-07-29T12:21:03;100073.66;;;22.62;nan
70053;BME280;57398;52.032;4.376;2023-07-29T12:23:52;100060.13;;;23.23;nan
70053;BME280;57398;52.032;4.376;2023-07-29T12:26:41;100169.31;;;22.43;nan
70053;BME280;57398;52.032;4.376;2023-07-29T12:29:30;100189.06;;;21.93;nan
70053;BME280;57398;52.032;4.376;2023-07-29T12:32:18;100181.09;;;21.75;nan
70053;BME280;57398;52.032;4.376;2023-07-29T12:35:09;100159.66;;;22.12;nan
70053;BME280;57398;52.032;4.376;2023-07-29T12:37:58;100168.97;;;21.66;nan
70053;BME280;57398;52.032;4.376;2023-07-29T12:40:48;100153.13;;;22.18;nan
70053;BME280;57398;52.032;4.376;2023-07-29T12:43:36;100173.81;;;21.81;nan
70053;BME280;57398;52.032;4.376;2023-07-29T12:46:29;100166.34;;;21.92;nan
70053;BME280;57398;52.032;4.376;2023-07-29T12:49:17;100192.84;;;22.27;nan
70053;BME280;57398;52.032;4.376;2023-07-29T12:52:06;100187.22;;;22.37;nan
70053;BME280;57398;52.032;4.376;2023-07-29T12:54:54;100233.28;;;22.27;nan
70053;BME280;57398;52.032;4.376;2023-07-29T12:57:44;100250.38;;;21.55;nan
70053;BME280;57398;52.032;4.376;2023-07-29T13:00:32;100203.22;;;21.88;nan
70053;BME280;57398;52.032;4.376;2023-07-29T13:03:21;100247.25;;;22.02;nan
70053;BME280;57398;52.032;4.376;2023-07-29T13:06:09;100226.72;;;21.90;nan
70053;BME280;57398;52.032;4.376;2023-07-29T13:08:57;100211.03;;;22.28;nan
70053;BME280;57398;52.032;4.376;2023-07-29T13:11:46;100233.03;;;21.80;nan
70053;BME280;57398;52.032;4.376;2023-07-29T13:14:35;100221.13;;;22.17;nan
70053;BME280;57398;52.032;4.376;2023-07-29T13:20:12;100231.38;;;22.63;nan
70053;BME280;57398;52.032;4.376;2023-07-29T13:23:00;100246.94;;;22.21;nan
70053;BME280;57398;52.032;4.376;2023-07-29T13:25:48;100257.84;;;22.63;nan
70053;BME280;57398;52.032;4.376;2023-07-29T13:28:37;100274.38;;;22.59;nan
70053;BME280;57398;52.032;4.376;2023-07-29T13:31:26;100271.00;;;23.24;nan
70053;BME280;57398;52.032;4.376;2023-07-29T13:34:14;100301.75;;;23.16;nan
70053;BME280;57398;52.032;4.376;2023-07-29T13:37:03;100320.16;;;23.04;nan
70053;BME280;57398;52.032;4.376;2023-07-29T13:39:52;100360.28;;;23.32;nan
70053;BME280;57398;52.032;4.376;2023-07-29T13:42:40;100421.88;;;22.94;nan
70053;BME280;57398;52.032;4.376;2023-07-29T13:48:18;100491.78;;;22.67;nan
70053;BME280;57398;52.032;4.376;2023-07-29T13:51:06;100467.56;;;23.26;nan
70053;BME280;57398;52.032;4.376;2023-07-29T13:53:55;100483.78;;;23.50;nan
70053;BME280;57398;52.032;4.376;2023-07-29T13:56:43;100510.53;;;22.96;nan
70053;BME280;57398;52.032;4.376;2023-07-29T13:59:31;100480.50;;;23.18;nan
70053;BME280;57398;52.032;4.376;2023-07-29T14:02:19;100524.13;;;23.04;nan
70053;BME280;57398;52.032;4.376;2023-07-29T14:05:09;100513.66;;;22.98;nan
70053;BME280;57398;52.032;4.376;2023-07-29T14:07:58;100493.59;;;23.41;nan
70053;BME280;57398;52.032;4.376;2023-07-29T14:10:47;100537.59;;;22.76;nan
70053;BME280;57398;52.032;4.376;2023-07-29T14:13:36;100512.19;;;22.66;nan
70053;BME280;57398;52.032;4.376;2023-07-29T14:16:24;100483.06;;;22.84;nan
70053;BME280;57398;52.032;4.376;2023-07-29T14:19:12;100485.97;;;23.05;nan
70053;BME280;57398;52.032;4.376;2023-07-29T14:22:03;100496.22;;;23.50;nan
70053;BME280;57398;52.032;4.376;2023-07-29T14:24:51;100506.47;;;23.95;nan
70053;BME280;57398;52.032;4.376;2023-07-29T14:27:39;100556.59;;;23.96;nan
70053;BME280;57398;52.032;4.376;2023-07-29T14:30:28;100608.03;;;23.43;nan
70053;BME280;57398;52.032;4.376;2023-07-29T14:33:16;100614.13;;;23.52;nan
70053;BME280;57398;52.032;4.376;2023-07-29T14:36:04;100588.13;;;22.57;nan
70053;BME280;57398;52.032;4.376;2023-07-29T14:41:43;100524.53;;;22.97;nan
70053;BME280;57398;52.032;4.376;2023-07-29T14:44:32;100542.28;;;22.88;nan
70053;BME280;57398;52.032;4.376;2023-07-29T14:47:20;100530.25;;;23.39;nan
70053;BME280;57398;52.032;4.376;2023-07-29T14:52:56;100546.16;;;23.39;nan
70053;BME280;57398;52.032;4.376;2023-07-29T14:55:46;100577.22;;;22.98;nan
70053;BME280;57398;52.032;4.376;2023-07-29T14:58:35;100559.69;;;23.37;nan
70053;BME280;57398;52.032;4.376;2023-07-29T15:01:23;100619.09;;;23.28;nan
70053;BME280;57398;52.032;4.376;2023-07-29T15:04:11;100578.59;;;23.62;nan
70053;BME280;57398;52.032;4.376;2023-07-29T15:07:00;100592.50;;;23.76;nan
70053;BME280;57398;52.032;4.376;2023-07-29T15:09:48;100603.69;;;23.47;nan
70053;BME280;57398;52.032;4.376;2023-07-29T15:12:37;100566.28;;;23.75;nan
70053;BME280;57398;52.032;4.376;2023-07-29T15:15:26;100606.81;;;23.93;nan
70053;BME280;57398;52.032;4.376;2023-07-29T15:18:14;100598.97;;;23.27;nan
70053;BME280;57398;52.032;4.376;2023-07-29T15:21:02;100542.22;;;23.54;nan
70053;BME280;57398;52.032;4.376;2023-07-29T15:23:52;100622.72;;;23.67;nan
70053;BME280;57398;52.032;4.376;2023-07-29T15:26:40;100737.91;;;23.43;nan
70053;BME280;57398;52.032;4.376;2023-07-29T15:29:34;100786.06;;;23.36;nan
70053;BME280;57398;52.032;4.376;2023-07-29T15:32:22;100827.84;;;23.31;nan
70053;BME280;57398;52.032;4.376;2023-07-29T15:35:11;100826.03;;;23.40;nan
70053;BME280;57398;52.032;4.376;2023-07-29T15:37:59;100803.13;;;23.44;nan
70053;BME280;57398;52.032;4.376;2023-07-29T15:43:39;100801.25;;;23.13;nan
70053;BME280;57398;52.032;4.376;2023-07-29T15:46:29;100821.00;;;23.30;nan
70053;BME280;57398;52.032;4.376;2023-07-29T15:49:17;100800.13;;;23.06;nan
70053;BME280;57398;52.032;4.376;2023-07-29T15:52:06;100808.41;;;22.90;nan
70053;BME280;57398;52.032;4.376;2023-07-29T15:54:59;100796.47;;;22.79;nan
70053;BME280;57398;52.032;4.376;2023-07-29T15:57:49;100798.97;;;22.98;nan
70053;BME280;57398;52.032;4.376;2023-07-29T16:03:27;100970.72;;;22.68;nan
70053;BME280;57398;52.032;4.376;2023-07-29T16:06:15;101052.81;;;22.82;nan
70053;BME280;57398;52.032;4.376;2023-07-29T16:09:04;101391.34;;;22.99;nan
70053;BME280;57398;52.032;4.376;2023-07-29T16:11:56;100662.34;;;22.74;nan
70053;BME280;57398;52.032;4.376;2023-07-29T16:14:58;99706.47;;;22.50;nan
70053;BME280;57398;52.032;4.376;2023-07-29T16:20:45;99530.38;;;22.52;nan
70053;BME280;57398;52.032;4.376;2023-07-29T16:23:36;99490.34;;;22.66;nan
70053;BME280;57398;52.032;4.376;2023-07-29T16:26:25;99396.88;;;22.37;nan
70053;BME280;57398;52.032;4.376;2023-07-29T16:29:18;99222.31;;;22.25;nan
70053;BME280;57398;52.032;4.376;2023-07-29T16:34:54;99138.41;;;22.38;nan
70053;BME280;57398;52.032;4.376;2023-07-29T16:37:45;99173.69;;;22.30;nan
70053;BME280;57398;52.032;4.376;2023-07-29T16:40:34;99202.59;;;22.23;nan
70053;BME280;57398;52.032;4.376;2023-07-29T16:43:22;99170.47;;;22.36;nan
70053;BME280;57398;52.032;4.376;2023-07-29T16:46:11;99188.72;;;22.13;nan